createdAt,value
2022-11-23T00:02:21.951Z,2.40
2022-11-23T00:04:49.207Z,1.20
2022-11-23T00:07:16.580Z,1.20
2022-11-23T00:09:43.946Z,1.10
2022-11-23T00:12:11.311Z,1.00
2022-11-23T00:14:38.485Z,2.85
2022-11-23T00:17:05.533Z,6.00
2022-11-23T00:19:35.750Z,7.93
2022-11-23T00:22:03.012Z,7.65
2022-11-23T00:24:30.248Z,8.38
2022-11-23T00:26:57.328Z,6.45
2022-11-23T00:29:24.439Z,3.60
2022-11-23T00:31:51.657Z,2.42
2022-11-23T00:34:18.980Z,1.23
2022-11-23T00:36:49.286Z,1.27
2022-11-23T00:39:16.982Z,1.30
2022-11-23T00:41:43.994Z,1.10
2022-11-23T00:44:11.140Z,1.40
2022-11-23T00:46:38.259Z,2.58
2022-11-23T00:49:06.858Z,6.95
2022-11-23T00:51:39.021Z,7.25
2022-11-23T00:54:06.980Z,6.15
2022-11-23T00:56:35.735Z,6.78
2022-11-23T00:59:04.063Z,6.18
2022-11-23T01:01:42.041Z,7.28
2022-11-23T01:04:09.574Z,1.65
2022-11-23T01:06:38.847Z,4.82
2022-11-23T01:09:14.735Z,5.50
2022-11-23T01:11:42.224Z,1.50
2022-11-23T01:14:09.545Z,1.27
2022-11-23T01:16:38.957Z,5.55
2022-11-23T01:19:14.238Z,5.82
2022-11-23T01:21:41.370Z,1.60
2022-11-23T01:24:15.026Z,2.08
2022-11-23T01:26:42.759Z,1.67
2022-11-23T01:29:10.381Z,1.13
2022-11-23T01:31:41.834Z,4.20
2022-11-23T01:34:14.855Z,1.00
2022-11-23T01:36:42.506Z,1.73
2022-11-23T01:39:11.896Z,1.20
2022-11-23T01:41:41.840Z,2.65
2022-11-23T01:44:30.170Z,2.08
2022-11-23T01:47:02.650Z,7.78
2022-11-23T01:49:34.333Z,9.00
2022-11-23T01:52:13.698Z,6.63
2022-11-23T01:54:45.786Z,1.42
2022-11-23T01:57:25.623Z,1.30
2022-11-23T01:59:54.041Z,4.18
2022-11-23T02:02:21.328Z,2.85
2022-11-23T02:04:52.347Z,1.10
2022-11-23T02:07:20.124Z,1.83
2022-11-23T02:09:47.989Z,1.70
2022-11-23T02:12:15.747Z,1.40
2022-11-23T02:14:43.171Z,1.10
2022-11-23T02:17:10.536Z,1.25
2022-11-23T02:20:11.143Z,3.50
2022-11-23T02:22:49.565Z,2.50
2022-11-23T02:25:41.515Z,1.30
2022-11-23T02:28:08.778Z,2.38
2022-11-23T02:30:37.116Z,7.22
2022-11-23T02:33:06.285Z,6.85
2022-11-23T02:35:34.493Z,7.38
2022-11-23T02:38:03.250Z,6.72
2022-11-23T02:40:35.349Z,8.68
2022-11-23T02:43:03.043Z,5.78
2022-11-23T02:45:48.712Z,8.25
2022-11-23T02:48:16.279Z,1.13
2022-11-23T02:50:43.459Z,1.30
2022-11-23T02:53:10.894Z,1.20
2022-11-23T02:55:38.283Z,3.17
2022-11-23T02:58:06.902Z,6.85
2022-11-23T03:00:34.629Z,7.00
2022-11-23T03:03:02.942Z,6.57
2022-11-23T03:05:30.592Z,7.22
2022-11-23T03:07:59.955Z,7.93
2022-11-23T03:10:27.855Z,8.50
2022-11-23T03:12:56.738Z,3.50
2022-11-23T03:15:24.787Z,5.03
2022-11-23T03:17:52.131Z,2.40
2022-11-23T03:20:19.679Z,1.50
2022-11-23T03:22:47.735Z,1.35
2022-11-23T03:25:15.071Z,1.30
2022-11-23T03:27:42.482Z,1.40
2022-11-23T03:30:10.368Z,1.20
2022-11-23T03:32:38.268Z,4.10
2022-11-23T03:35:06.160Z,7.30
2022-11-23T03:37:33.252Z,7.13
2022-11-23T03:40:00.429Z,6.25
2022-11-23T03:42:27.592Z,8.57
2022-11-23T03:44:54.805Z,3.13
2022-11-23T03:47:22.010Z,2.72
2022-11-23T03:49:49.522Z,1.00
2022-11-23T03:52:17.230Z,1.10
2022-11-23T03:54:44.369Z,1.23
2022-11-23T03:57:11.750Z,1.13
2022-11-23T03:59:38.883Z,2.45
2022-11-23T04:02:07.986Z,6.18
2022-11-23T04:04:35.663Z,7.22
2022-11-23T04:07:03.572Z,6.65
2022-11-23T04:09:34.091Z,6.55
2022-11-23T04:12:01.526Z,8.63
2022-11-23T04:14:28.687Z,7.78
2022-11-23T04:16:55.874Z,4.38
2022-11-23T04:19:22.962Z,4.68
2022-11-23T04:21:50.168Z,3.47
2022-11-23T04:24:17.428Z,1.25
2022-11-23T04:26:44.648Z,1.30
2022-11-23T04:29:11.753Z,1.20
2022-11-23T04:31:38.828Z,2.25
2022-11-23T04:34:05.914Z,5.63
2022-11-23T04:36:33.561Z,6.25
2022-11-23T04:39:00.658Z,6.88
2022-11-23T04:41:27.723Z,7.60
2022-11-23T04:43:55.005Z,3.80
2022-11-23T04:46:22.436Z,2.63
2022-11-23T04:48:49.635Z,1.77
2022-11-23T04:51:17.705Z,1.48
2022-11-23T04:53:45.178Z,1.30
2022-11-23T04:56:12.218Z,1.30
2022-11-23T04:58:39.369Z,2.17
2022-11-23T05:01:10.201Z,5.33
2022-11-23T05:03:37.453Z,4.13
2022-11-23T05:06:05.569Z,6.57
2022-11-23T05:08:32.969Z,7.47
2022-11-23T05:11:00.120Z,7.68
2022-11-23T05:13:27.203Z,8.63
2022-11-23T05:15:54.410Z,4.05
2022-11-23T05:18:21.543Z,2.92
2022-11-23T05:20:48.767Z,1.00
2022-11-23T05:23:16.324Z,1.30
2022-11-23T05:25:43.516Z,1.30
2022-11-23T05:28:46.994Z,1.30
2022-11-23T05:31:07.109Z,4.80
2022-11-23T05:33:34.333Z,7.20
2022-11-23T05:36:01.540Z,6.25
2022-11-23T05:38:28.848Z,8.07
2022-11-23T05:40:56.029Z,4.70
2022-11-23T05:43:25.708Z,6.17
2022-11-23T05:45:52.905Z,3.23
2022-11-23T05:48:20.091Z,2.40
2022-11-23T05:50:47.514Z,1.13
2022-11-23T05:53:14.552Z,1.20
2022-11-23T05:55:41.735Z,2.00
2022-11-23T05:58:08.797Z,2.55
2022-11-23T06:00:36.308Z,7.07
2022-11-23T06:03:03.647Z,6.55
2022-11-23T06:05:30.993Z,6.78
2022-11-23T06:07:58.366Z,7.57
2022-11-23T06:10:25.630Z,3.45
2022-11-23T06:12:53.084Z,3.45
2022-11-23T06:15:20.715Z,3.30
2022-11-23T06:17:48.113Z,1.10
2022-11-23T06:20:15.562Z,1.45
2022-11-23T06:22:42.698Z,3.95
2022-11-23T06:25:10.132Z,1.60
2022-11-23T06:27:37.338Z,5.23
2022-11-23T06:30:05.060Z,6.35
2022-11-23T06:32:32.399Z,7.80
2022-11-23T06:35:01.132Z,8.43
2022-11-23T06:37:28.604Z,8.60
2022-11-23T06:39:55.654Z,4.35
2022-11-23T06:42:39.851Z,3.13
2022-11-23T06:45:08.572Z,4.63
2022-11-23T06:47:35.716Z,6.57
2022-11-23T06:50:05.790Z,6.75
2022-11-23T06:52:32.930Z,7.13
2022-11-23T06:55:00.055Z,7.85
2022-11-23T06:57:27.213Z,8.00
2022-11-23T06:59:54.454Z,4.68
2022-11-23T07:02:21.592Z,2.63
2022-11-23T07:04:48.979Z,1.20
2022-11-23T07:07:16.892Z,1.00
2022-11-23T07:09:43.986Z,1.30
2022-11-23T07:12:11.147Z,1.20
2022-11-23T07:14:38.142Z,3.75
2022-11-23T07:17:05.334Z,6.68
2022-11-23T07:19:32.751Z,6.97
2022-11-23T07:22:00.588Z,8.10
2022-11-23T07:24:28.563Z,7.68
2022-11-23T07:26:56.912Z,8.30
2022-11-23T07:29:24.109Z,5.30
2022-11-23T07:31:51.673Z,3.03
2022-11-23T07:34:18.961Z,1.40
2022-11-23T07:36:46.223Z,1.40
2022-11-23T07:39:13.632Z,1.30
2022-11-23T07:41:40.653Z,1.47
2022-11-23T07:44:11.036Z,3.87
2022-11-23T07:46:38.115Z,3.70
2022-11-23T07:49:05.329Z,6.37
2022-11-23T07:51:32.526Z,7.95
2022-11-23T07:53:59.663Z,8.50
2022-11-23T07:56:26.952Z,8.40
2022-11-23T07:58:54.026Z,13.73
2022-11-23T08:01:21.686Z,2.73
2022-11-23T08:03:49.246Z,1.20
2022-11-23T08:06:17.612Z,1.00
2022-11-23T08:08:45.159Z,1.23
2022-11-23T08:11:15.349Z,1.00
2022-11-23T08:13:42.537Z,1.27
2022-11-23T08:16:09.648Z,1.87
2022-11-23T08:18:37.193Z,5.40
2022-11-23T08:21:04.826Z,7.20
2022-11-23T08:23:32.061Z,7.00
2022-11-23T08:25:59.319Z,7.17
2022-11-23T08:28:26.506Z,6.55
2022-11-23T08:30:53.762Z,5.50
2022-11-23T08:33:21.186Z,4.80
2022-11-23T08:35:48.534Z,1.00
2022-11-23T08:38:15.687Z,1.10
2022-11-23T08:40:42.940Z,0.97
2022-11-23T08:43:10.171Z,1.43
2022-11-23T08:45:37.560Z,5.30
2022-11-23T08:48:05.655Z,6.60
2022-11-23T08:50:34.829Z,8.17
2022-11-23T08:53:01.973Z,6.93
2022-11-23T08:55:29.766Z,7.43
2022-11-23T08:57:58.043Z,8.20
2022-11-23T09:00:26.488Z,3.33
2022-11-23T09:02:54.137Z,7.10
2022-11-23T09:05:21.486Z,2.73
2022-11-23T09:07:49.156Z,1.10
2022-11-23T09:10:18.958Z,1.23
2022-11-23T09:12:47.717Z,2.33
2022-11-23T09:15:15.625Z,1.30
2022-11-23T09:17:43.050Z,1.20
2022-11-23T09:20:11.126Z,1.30
2022-11-23T09:22:38.339Z,3.57
2022-11-23T09:25:07.189Z,7.03
2022-11-23T09:27:34.698Z,7.27
2022-11-23T09:30:02.163Z,6.47
2022-11-23T09:32:29.552Z,6.23
2022-11-23T09:34:56.655Z,9.03
2022-11-23T09:37:23.817Z,5.43
2022-11-23T09:39:53.175Z,2.63
2022-11-23T09:42:36.555Z,1.77
2022-11-23T09:45:23.519Z,7.60
2022-11-23T09:48:02.256Z,2.80
2022-11-23T09:50:49.106Z,7.73
2022-11-23T09:53:23.476Z,1.20
2022-11-23T09:55:52.821Z,2.60
2022-11-23T09:58:23.876Z,1.13
2022-11-23T10:01:06.001Z,3.00
2022-11-23T10:03:37.558Z,5.97
2022-11-23T10:06:26.692Z,6.93
2022-11-23T10:09:31.814Z,4.57
2022-11-23T10:12:43.276Z,5.83
2022-11-23T10:15:16.351Z,1.30
2022-11-23T10:18:28.875Z,1.20
2022-11-23T10:21:07.934Z,3.47
2022-11-23T10:23:59.995Z,5.90
2022-11-23T10:26:32.573Z,5.77
2022-11-23T10:29:09.930Z,7.70
2022-11-23T10:31:37.281Z,5.30
2022-11-23T10:34:15.928Z,6.20
2022-11-23T10:36:43.245Z,1.07
2022-11-23T10:39:24.937Z,1.10
2022-11-23T10:41:52.558Z,1.90
2022-11-23T10:44:26.649Z,0.90
2022-11-23T10:46:54.119Z,5.57
2022-11-23T10:49:27.723Z,2.73
2022-11-23T10:51:57.886Z,4.17
2022-11-23T10:54:47.533Z,3.77
2022-11-23T10:57:48.208Z,1.00
2022-11-23T11:00:18.353Z,0.90
2022-11-23T11:03:21.962Z,1.00
2022-11-23T11:06:08.521Z,1.20
2022-11-23T11:08:50.762Z,6.20
2022-11-23T11:11:29.762Z,0.97
2022-11-23T11:14:18.140Z,5.33
2022-11-23T11:16:52.881Z,0.87
2022-11-23T11:19:32.693Z,1.10
2022-11-23T11:22:02.414Z,6.43
2022-11-23T11:24:36.841Z,5.47
2022-11-23T11:27:16.816Z,5.90
2022-11-23T11:29:44.540Z,0.90
2022-11-23T11:32:31.107Z,1.10
2022-11-23T11:35:25.536Z,5.63
2022-11-23T11:37:56.634Z,1.90
2022-11-23T11:40:38.563Z,5.03
2022-11-23T11:43:38.894Z,5.60
2022-11-23T11:46:30.707Z,4.90
2022-11-23T11:49:21.421Z,5.50
2022-11-23T11:51:58.540Z,1.00
2022-11-23T11:55:10.085Z,2.70
2022-11-23T11:57:40.760Z,4.83
2022-11-23T12:00:16.328Z,3.60
2022-11-23T12:02:49.661Z,1.17
2022-11-23T12:05:27.610Z,1.00
2022-11-23T12:08:19.283Z,4.17
2022-11-23T12:11:02.483Z,0.83
2022-11-23T12:13:34.973Z,5.80
2022-11-23T12:16:08.130Z,5.03
2022-11-23T12:19:01.808Z,6.17
2022-11-23T12:21:54.323Z,5.93
2022-11-23T12:24:53.861Z,1.70
2022-11-23T12:27:58.322Z,1.97
2022-11-23T12:30:35.468Z,3.27
2022-11-23T12:33:38.218Z,5.80
2022-11-23T12:36:11.599Z,6.13
2022-11-23T12:38:59.321Z,2.83
2022-11-23T12:41:43.057Z,5.00
2022-11-23T12:44:40.048Z,1.30
2022-11-23T12:47:07.278Z,4.73
2022-11-23T12:50:17.283Z,6.30
2022-11-23T12:52:58.863Z,0.90
2022-11-23T12:55:29.620Z,3.47
2022-11-23T12:58:04.339Z,4.77
2022-11-23T13:00:42.695Z,5.90
2022-11-23T13:03:56.840Z,1.83
2022-11-23T13:07:12.668Z,4.87
2022-11-23T13:10:22.562Z,3.80
2022-11-23T13:13:41.290Z,0.93
2022-11-23T13:16:18.894Z,2.90
2022-11-23T13:19:10.624Z,0.90
2022-11-23T13:21:43.733Z,4.13
2022-11-23T13:24:29.669Z,0.80
2022-11-23T13:27:15.380Z,4.90
2022-11-23T13:29:52.731Z,1.00
2022-11-23T13:32:39.806Z,0.80
2022-11-23T13:35:19.640Z,5.10
2022-11-23T13:38:02.303Z,0.80
2022-11-23T13:40:35.497Z,6.60
2022-11-23T13:43:21.627Z,4.97
2022-11-23T13:46:13.379Z,1.00
2022-11-23T13:49:03.135Z,1.67
2022-11-23T13:51:37.070Z,7.20
2022-11-23T13:54:09.510Z,5.43
2022-11-23T13:56:39.206Z,5.70
2022-11-23T13:59:24.611Z,5.17
2022-11-23T14:02:07.160Z,2.17
2022-11-23T14:04:35.878Z,5.43
2022-11-23T14:07:07.531Z,5.37
2022-11-23T14:09:49.124Z,5.73
2022-11-23T14:12:23.096Z,1.17
2022-11-23T14:15:16.100Z,1.00
2022-11-23T14:18:03.439Z,0.90
2022-11-23T14:21:00.458Z,6.70
2022-11-23T14:23:51.123Z,6.10
2022-11-23T14:26:47.720Z,1.00
2022-11-23T14:29:54.502Z,1.20
2022-11-23T14:32:43.869Z,2.03
2022-11-23T14:35:33.571Z,1.10
2022-11-23T14:38:32.181Z,7.03
2022-11-23T14:41:10.184Z,6.43
2022-11-23T14:43:44.106Z,5.30
2022-11-23T14:46:22.989Z,0.90
2022-11-23T14:48:52.945Z,1.00
2022-11-23T14:51:27.027Z,0.90
2022-11-23T14:53:57.778Z,4.77
2022-11-23T14:56:55.061Z,4.07
2022-11-23T14:59:42.140Z,1.87
2022-11-23T15:02:19.659Z,1.63
2022-11-23T15:05:02.876Z,0.90
2022-11-23T15:07:39.560Z,6.60
2022-11-23T15:10:25.240Z,5.10
2022-11-23T15:12:52.281Z,1.70
2022-11-23T15:15:22.731Z,1.00
2022-11-23T15:18:05.979Z,0.90
2022-11-23T15:20:34.962Z,5.50
2022-11-23T15:23:03.622Z,5.30
2022-11-23T15:25:30.840Z,6.50
2022-11-23T15:27:58.214Z,5.50
2022-11-23T15:30:30.577Z,3.20
2022-11-23T15:33:02.751Z,5.27
2022-11-23T15:35:38.762Z,6.87
2022-11-23T15:38:20.465Z,6.03
2022-11-23T15:40:51.363Z,1.23
2022-11-23T15:43:20.345Z,0.90
2022-11-23T15:45:47.781Z,1.10
2022-11-23T15:48:20.483Z,1.00
2022-11-23T15:50:54.905Z,1.00
2022-11-23T15:53:26.349Z,2.30
2022-11-23T15:55:54.829Z,2.47
2022-11-23T15:58:22.181Z,2.47
2022-11-23T16:01:06.727Z,1.00
2022-11-23T16:03:42.016Z,6.50
2022-11-23T16:06:27.827Z,2.30
2022-11-23T16:09:00.062Z,4.50
2022-11-23T16:11:35.498Z,6.00
2022-11-23T16:14:31.897Z,5.90
2022-11-23T16:17:12.644Z,5.63
2022-11-23T16:19:39.942Z,2.43
2022-11-23T16:22:07.677Z,5.17
2022-11-23T16:24:36.402Z,6.37
2022-11-23T16:27:13.638Z,6.00
2022-11-23T16:29:41.218Z,1.30
2022-11-23T16:32:26.531Z,3.23
2022-11-23T16:34:54.187Z,3.23
2022-11-23T16:37:23.405Z,1.93
2022-11-23T16:39:50.639Z,1.10
2022-11-23T16:42:19.254Z,1.10
2022-11-23T16:44:48.786Z,1.30
2022-11-23T16:47:26.783Z,1.30
2022-11-23T16:49:54.761Z,3.97
2022-11-23T16:52:22.892Z,2.40
2022-11-23T16:54:50.647Z,1.83
2022-11-23T16:57:32.612Z,1.40
2022-11-23T17:00:03.213Z,5.83
2022-11-23T17:02:30.514Z,6.77
2022-11-23T17:04:57.671Z,6.13
2022-11-23T17:07:25.032Z,4.23
2022-11-23T17:09:55.367Z,2.83
2022-11-23T17:12:22.610Z,3.63
2022-11-23T17:14:50.540Z,0.90
2022-11-23T17:17:21.804Z,1.17
2022-11-23T17:19:50.593Z,1.10
2022-11-23T17:22:19.520Z,1.07
2022-11-23T17:24:52.067Z,1.10
2022-11-23T17:27:25.631Z,0.90
2022-11-23T17:30:04.382Z,1.83
2022-11-23T17:32:31.919Z,6.20
2022-11-23T17:34:59.276Z,5.43
2022-11-23T17:37:26.833Z,3.57
2022-11-23T17:39:56.555Z,3.87
2022-11-23T17:42:23.978Z,2.17
2022-11-23T17:44:51.173Z,2.07
2022-11-23T17:47:29.095Z,1.20
2022-11-23T17:49:58.829Z,3.17
2022-11-23T17:52:26.767Z,3.27
2022-11-23T17:54:54.064Z,3.13
2022-11-23T17:57:25.296Z,1.90
2022-11-23T17:59:53.653Z,2.13
2022-11-23T18:02:21.643Z,1.20
2022-11-23T18:04:48.960Z,1.10
2022-11-23T18:07:17.443Z,1.17
2022-11-23T18:09:44.960Z,0.93
2022-11-23T18:12:12.231Z,1.37
2022-11-23T18:14:39.295Z,3.37
2022-11-23T18:17:06.459Z,5.40
2022-11-23T18:19:33.964Z,6.10
2022-11-23T18:22:03.771Z,6.83
2022-11-23T18:24:30.864Z,8.30
2022-11-23T18:26:58.094Z,5.13
2022-11-23T18:29:26.406Z,4.53
2022-11-23T18:31:53.509Z,1.97
2022-11-23T18:34:20.820Z,1.33
2022-11-23T18:36:53.527Z,0.90
2022-11-23T18:39:21.061Z,1.00
2022-11-23T18:41:48.603Z,1.03
2022-11-23T18:44:16.609Z,1.03
2022-11-23T18:46:46.198Z,1.10
2022-11-23T18:49:13.521Z,1.17
2022-11-23T18:51:43.510Z,1.83
2022-11-23T18:54:10.507Z,1.90
2022-11-23T18:56:37.610Z,5.70
2022-11-23T18:59:05.083Z,5.67
2022-11-23T19:01:32.410Z,6.67
2022-11-23T19:04:00.658Z,5.83
2022-11-23T19:06:27.911Z,6.03
2022-11-23T19:08:57.853Z,4.17
2022-11-23T19:11:27.576Z,4.37
2022-11-23T19:13:56.928Z,5.20
2022-11-23T19:16:26.313Z,3.27
2022-11-23T19:19:05.379Z,1.83
2022-11-23T19:21:33.810Z,7.60
2022-11-23T19:24:01.583Z,7.80
2022-11-23T19:26:29.975Z,7.80
2022-11-23T19:28:57.825Z,4.07
2022-11-23T19:31:27.531Z,5.33
2022-11-23T19:33:58.270Z,4.77
2022-11-23T19:36:26.040Z,4.67
2022-11-23T19:38:53.340Z,2.30
2022-11-23T19:41:24.107Z,1.43
2022-11-23T19:43:57.044Z,4.20
2022-11-23T19:46:26.051Z,4.20
2022-11-23T19:48:54.983Z,2.03
2022-11-23T19:51:23.749Z,2.27
2022-11-23T19:53:51.523Z,2.10
2022-11-23T19:56:25.356Z,1.07
2022-11-23T19:58:54.226Z,2.00
2022-11-23T20:01:23.090Z,2.33
2022-11-23T20:03:54.978Z,0.97
2022-11-23T20:06:28.677Z,2.03
2022-11-23T20:09:07.790Z,4.10
2022-11-23T20:11:36.446Z,6.60
2022-11-23T20:14:03.798Z,5.90
2022-11-23T20:16:32.619Z,8.83
2022-11-23T20:19:02.010Z,7.00
2022-11-23T20:21:30.273Z,5.83
2022-11-23T20:24:05.253Z,5.70
2022-11-23T20:26:33.859Z,6.00
2022-11-23T20:29:01.057Z,8.77
2022-11-23T20:31:30.449Z,6.23
2022-11-23T20:33:57.686Z,5.73
2022-11-23T20:36:32.857Z,4.80
2022-11-23T20:39:03.796Z,6.40
2022-11-23T20:41:34.525Z,7.70
2022-11-23T20:44:11.772Z,9.10
2022-11-23T20:49:30.466Z,7.43
2022-11-23T20:51:58.425Z,6.10
2022-11-23T20:54:25.545Z,5.63
2022-11-23T20:56:52.748Z,2.27
2022-11-23T20:59:20.511Z,1.30
2022-11-23T21:01:47.929Z,1.20
2022-11-23T21:04:15.178Z,1.10
2022-11-23T21:06:42.378Z,1.67
2022-11-23T21:09:12.613Z,2.90
2022-11-23T21:11:58.429Z,3.10
2022-11-23T21:14:32.054Z,4.90
2022-11-23T21:17:00.570Z,5.93
2022-11-23T21:19:36.107Z,6.67
2022-11-23T21:22:11.655Z,6.30
2022-11-23T21:24:39.207Z,3.80
2022-11-23T21:27:07.479Z,3.85
2022-11-23T21:29:34.749Z,6.43
2022-11-23T21:32:01.999Z,6.13
2022-11-23T21:34:30.295Z,6.73
2022-11-23T21:36:57.955Z,6.20
2022-11-23T21:39:25.671Z,4.70
2022-11-23T21:41:54.346Z,2.37
2022-11-23T21:44:25.454Z,2.67
2022-11-23T21:46:52.653Z,2.67
2022-11-23T21:49:20.047Z,1.87
2022-11-23T21:51:48.072Z,1.20
2022-11-23T21:54:16.137Z,3.77
2022-11-23T21:56:45.098Z,1.40
2022-11-23T21:59:12.534Z,1.20
2022-11-23T22:01:40.351Z,3.50
2022-11-23T22:04:10.575Z,5.73
2022-11-23T22:06:39.394Z,5.73
2022-11-23T22:09:09.585Z,6.23
2022-11-23T22:11:38.284Z,6.57
2022-11-23T22:14:14.064Z,6.43
2022-11-23T22:16:46.252Z,1.77
2022-11-23T22:19:15.400Z,1.20
2022-11-23T22:21:44.296Z,1.30
2022-11-23T22:24:13.626Z,1.23
2022-11-23T22:26:41.182Z,2.50
2022-11-23T22:29:08.529Z,4.63
2022-11-23T22:31:36.465Z,6.70
2022-11-23T22:34:05.941Z,6.03
2022-11-23T22:36:33.223Z,8.43
2022-11-23T22:39:06.251Z,6.97
2022-11-23T22:41:39.364Z,7.70
2022-11-23T22:44:08.389Z,10.23
2022-11-23T22:46:37.845Z,9.77
2022-11-23T22:49:05.263Z,6.13
2022-11-23T22:51:32.499Z,7.03
2022-11-23T22:54:02.174Z,8.53
2022-11-23T22:56:30.836Z,6.40
2022-11-23T22:58:58.409Z,8.13
2022-11-23T23:01:27.895Z,5.00
2022-11-23T23:03:56.788Z,5.67
2022-11-23T23:06:26.564Z,2.40
2022-11-23T23:08:56.177Z,2.30
2022-11-23T23:11:24.450Z,2.37
2022-11-23T23:13:52.048Z,1.70
2022-11-23T23:16:19.885Z,2.90
2022-11-23T23:18:48.333Z,1.00
2022-11-23T23:21:17.557Z,1.20
2022-11-23T23:23:46.717Z,1.20
2022-11-23T23:26:16.147Z,1.57
2022-11-23T23:28:43.808Z,1.10
2022-11-23T23:31:14.151Z,1.77
2022-11-23T23:33:41.812Z,2.23
2022-11-23T23:36:10.437Z,4.10
2022-11-23T23:38:38.574Z,6.87
2022-11-23T23:41:06.783Z,5.90
2022-11-23T23:43:34.497Z,6.13
2022-11-23T23:46:07.858Z,7.57
2022-11-23T23:48:36.596Z,7.00
2022-11-23T23:51:15.023Z,5.93
2022-11-23T23:53:42.797Z,1.57
2022-11-23T23:56:18.612Z,2.70
2022-11-23T23:58:46.677Z,1.17
